sensor_id;sensor_type;location;lat;lon;timestamp;P1;durP1;ratioP1;P2;durP2;ratioP2
79229;SDS011;68663;49.122;17.544;2023-05-07T00:00:09;4.25;;;3.53;;
79229;SDS011;68663;49.122;17.544;2023-05-07T00:02:36;4.18;;;3.05;;
79229;SDS011;68663;49.122;17.544;2023-05-07T00:05:02;3.45;;;2.45;;
79229;SDS011;68663;49.122;17.544;2023-05-07T00:07:28;5.30;;;3.25;;
79229;SDS011;68663;49.122;17.544;2023-05-07T00:09:54;4.10;;;2.97;;
79229;SDS011;68663;49.122;17.544;2023-05-07T00:12:19;3.55;;;3.00;;
79229;SDS011;68663;49.122;17.544;2023-05-07T00:14:45;4.07;;;3.03;;
79229;SDS011;68663;49.122;17.544;2023-05-07T00:17:10;4.63;;;3.22;;
79229;SDS011;68663;49.122;17.544;2023-05-07T00:19:36;4.38;;;3.08;;
79229;SDS011;68663;49.122;17.544;2023-05-07T00:22:01;4.85;;;3.30;;
79229;SDS011;68663;49.122;17.544;2023-05-07T00:24:27;4.22;;;3.00;;
79229;SDS011;68663;49.122;17.544;2023-05-07T00:26:52;5.25;;;3.20;;
79229;SDS011;68663;49.122;17.544;2023-05-07T00:29:18;5.57;;;2.90;;
79229;SDS011;68663;49.122;17.544;2023-05-07T00:31:43;3.05;;;2.55;;
79229;SDS011;68663;49.122;17.544;2023-05-07T00:34:09;3.47;;;3.00;;
79229;SDS011;68663;49.122;17.544;2023-05-07T00:36:34;4.43;;;3.22;;
79229;SDS011;68663;49.122;17.544;2023-05-07T00:39:00;4.43;;;2.78;;
79229;SDS011;68663;49.122;17.544;2023-05-07T00:41:28;3.08;;;2.78;;
79229;SDS011;68663;49.122;17.544;2023-05-07T00:43:53;3.50;;;2.88;;
79229;SDS011;68663;49.122;17.544;2023-05-07T00:46:20;3.35;;;2.75;;
79229;SDS011;68663;49.122;17.544;2023-05-07T00:48:46;3.72;;;3.00;;
79229;SDS011;68663;49.122;17.544;2023-05-07T00:51:12;4.60;;;3.10;;
79229;SDS011;68663;49.122;17.544;2023-05-07T00:53:37;4.32;;;3.00;;
79229;SDS011;68663;49.122;17.544;2023-05-07T00:56:03;2.97;;;2.67;;
79229;SDS011;68663;49.122;17.544;2023-05-07T00:58:31;3.65;;;3.05;;
79229;SDS011;68663;49.122;17.544;2023-05-07T01:00:57;3.53;;;3.05;;
79229;SDS011;68663;49.122;17.544;2023-05-07T01:03:23;3.50;;;2.65;;
79229;SDS011;68663;49.122;17.544;2023-05-07T01:05:48;3.53;;;2.80;;
79229;SDS011;68663;49.122;17.544;2023-05-07T01:08:16;4.00;;;3.00;;
79229;SDS011;68663;49.122;17.544;2023-05-07T01:10:43;3.40;;;2.72;;
79229;SDS011;68663;49.122;17.544;2023-05-07T01:13:10;3.03;;;2.50;;
79229;SDS011;68663;49.122;17.544;2023-05-07T01:15:37;3.40;;;3.00;;
79229;SDS011;68663;49.122;17.544;2023-05-07T01:18:03;4.63;;;3.10;;
79229;SDS011;68663;49.122;17.544;2023-05-07T01:20:29;3.22;;;2.92;;
79229;SDS011;68663;49.122;17.544;2023-05-07T01:22:55;3.72;;;2.80;;
79229;SDS011;68663;49.122;17.544;2023-05-07T01:25:22;3.92;;;2.90;;
79229;SDS011;68663;49.122;17.544;2023-05-07T01:27:48;4.15;;;3.00;;
79229;SDS011;68663;49.122;17.544;2023-05-07T01:30:13;3.72;;;2.83;;
79229;SDS011;68663;49.122;17.544;2023-05-07T01:32:44;3.15;;;2.80;;
79229;SDS011;68663;49.122;17.544;2023-05-07T01:35:15;3.58;;;2.80;;
79229;SDS011;68663;49.122;17.544;2023-05-07T01:37:44;4.47;;;2.90;;
79229;SDS011;68663;49.122;17.544;2023-05-07T01:40:12;3.40;;;2.58;;
79229;SDS011;68663;49.122;17.544;2023-05-07T01:42:38;3.28;;;2.53;;
79229;SDS011;68663;49.122;17.544;2023-05-07T01:45:04;3.60;;;2.53;;
79229;SDS011;68663;49.122;17.544;2023-05-07T01:47:30;4.05;;;2.90;;
79229;SDS011;68663;49.122;17.544;2023-05-07T01:49:56;3.08;;;2.47;;
79229;SDS011;68663;49.122;17.544;2023-05-07T01:52:23;3.28;;;2.50;;
79229;SDS011;68663;49.122;17.544;2023-05-07T01:54:49;3.80;;;3.40;;
79229;SDS011;68663;49.122;17.544;2023-05-07T01:57:15;2.92;;;2.58;;
79229;SDS011;68663;49.122;17.544;2023-05-07T01:59:40;3.95;;;2.75;;
79229;SDS011;68663;49.122;17.544;2023-05-07T02:02:05;3.00;;;2.67;;
79229;SDS011;68663;49.122;17.544;2023-05-07T02:04:31;3.55;;;2.60;;
79229;SDS011;68663;49.122;17.544;2023-05-07T02:06:56;4.15;;;2.67;;
79229;SDS011;68663;49.122;17.544;2023-05-07T02:09:22;2.70;;;2.35;;
79229;SDS011;68663;49.122;17.544;2023-05-07T02:11:48;3.05;;;2.47;;
79229;SDS011;68663;49.122;17.544;2023-05-07T02:14:13;3.60;;;2.85;;
79229;SDS011;68663;49.122;17.544;2023-05-07T02:16:40;2.80;;;2.38;;
79229;SDS011;68663;49.122;17.544;2023-05-07T02:19:06;3.25;;;2.63;;
79229;SDS011;68663;49.122;17.544;2023-05-07T02:21:31;3.17;;;2.50;;
79229;SDS011;68663;49.122;17.544;2023-05-07T02:23:56;2.85;;;2.42;;
79229;SDS011;68663;49.122;17.544;2023-05-07T02:26:22;2.85;;;2.40;;
79229;SDS011;68663;49.122;17.544;2023-05-07T02:28:47;3.33;;;2.60;;
79229;SDS011;68663;49.122;17.544;2023-05-07T02:31:13;3.38;;;2.58;;
79229;SDS011;68663;49.122;17.544;2023-05-07T02:33:38;3.17;;;2.70;;
79229;SDS011;68663;49.122;17.544;2023-05-07T02:36:10;2.97;;;2.60;;
79229;SDS011;68663;49.122;17.544;2023-05-07T02:38:36;3.30;;;2.50;;
79229;SDS011;68663;49.122;17.544;2023-05-07T02:41:01;2.85;;;2.22;;
79229;SDS011;68663;49.122;17.544;2023-05-07T02:43:27;3.38;;;2.70;;
79229;SDS011;68663;49.122;17.544;2023-05-07T02:46:02;2.92;;;2.50;;
79229;SDS011;68663;49.122;17.544;2023-05-07T02:48:32;3.13;;;2.38;;
79229;SDS011;68663;49.122;17.544;2023-05-07T02:50:58;3.95;;;2.60;;
79229;SDS011;68663;49.122;17.544;2023-05-07T02:53:24;2.90;;;2.50;;
79229;SDS011;68663;49.122;17.544;2023-05-07T02:55:55;3.08;;;2.40;;
79229;SDS011;68663;49.122;17.544;2023-05-07T02:58:24;2.80;;;2.40;;
79229;SDS011;68663;49.122;17.544;2023-05-07T03:00:50;2.90;;;2.33;;
79229;SDS011;68663;49.122;17.544;2023-05-07T03:03:15;3.00;;;2.60;;
79229;SDS011;68663;49.122;17.544;2023-05-07T03:05:41;3.10;;;2.50;;
79229;SDS011;68663;49.122;17.544;2023-05-07T03:08:07;2.75;;;2.30;;
79229;SDS011;68663;49.122;17.544;2023-05-07T03:10:32;3.10;;;2.63;;
79229;SDS011;68663;49.122;17.544;2023-05-07T03:12:58;2.90;;;2.13;;
79229;SDS011;68663;49.122;17.544;2023-05-07T03:15:23;2.95;;;2.65;;
79229;SDS011;68663;49.122;17.544;2023-05-07T03:17:49;3.00;;;2.28;;
79229;SDS011;68663;49.122;17.544;2023-05-07T03:20:14;2.97;;;2.45;;
79229;SDS011;68663;49.122;17.544;2023-05-07T03:22:40;3.10;;;2.40;;
79229;SDS011;68663;49.122;17.544;2023-05-07T03:25:06;4.68;;;2.70;;
79229;SDS011;68663;49.122;17.544;2023-05-07T03:27:32;2.55;;;2.25;;
79229;SDS011;68663;49.122;17.544;2023-05-07T03:29:57;3.20;;;2.90;;
79229;SDS011;68663;49.122;17.544;2023-05-07T03:32:23;3.55;;;2.58;;
79229;SDS011;68663;49.122;17.544;2023-05-07T03:34:48;2.75;;;2.30;;
79229;SDS011;68663;49.122;17.544;2023-05-07T03:37:14;3.20;;;2.40;;
79229;SDS011;68663;49.122;17.544;2023-05-07T03:39:39;3.85;;;2.80;;
79229;SDS011;68663;49.122;17.544;2023-05-07T03:42:04;3.17;;;2.50;;
79229;SDS011;68663;49.122;17.544;2023-05-07T03:44:30;2.90;;;2.38;;
79229;SDS011;68663;49.122;17.544;2023-05-07T03:46:55;2.75;;;2.25;;
79229;SDS011;68663;49.122;17.544;2023-05-07T03:49:21;3.45;;;2.30;;
79229;SDS011;68663;49.122;17.544;2023-05-07T03:51:46;3.22;;;2.47;;
79229;SDS011;68663;49.122;17.544;2023-05-07T03:54:12;3.15;;;2.45;;
79229;SDS011;68663;49.122;17.544;2023-05-07T03:56:37;3.03;;;2.60;;
79229;SDS011;68663;49.122;17.544;2023-05-07T03:59:02;2.90;;;2.42;;
79229;SDS011;68663;49.122;17.544;2023-05-07T04:01:28;2.90;;;2.50;;
79229;SDS011;68663;49.122;17.544;2023-05-07T04:03:53;3.00;;;2.45;;
79229;SDS011;68663;49.122;17.544;2023-05-07T04:06:19;3.20;;;2.53;;
79229;SDS011;68663;49.122;17.544;2023-05-07T04:08:44;2.90;;;2.30;;
79229;SDS011;68663;49.122;17.544;2023-05-07T04:11:09;2.72;;;2.28;;
79229;SDS011;68663;49.122;17.544;2023-05-07T04:13:35;2.38;;;2.00;;
79229;SDS011;68663;49.122;17.544;2023-05-07T04:16:04;3.30;;;2.40;;
79229;SDS011;68663;49.122;17.544;2023-05-07T04:18:30;2.72;;;2.17;;
79229;SDS011;68663;49.122;17.544;2023-05-07T04:20:56;2.72;;;2.45;;
79229;SDS011;68663;49.122;17.544;2023-05-07T04:23:21;2.80;;;2.40;;
79229;SDS011;68663;49.122;17.544;2023-05-07T04:25:47;3.10;;;2.40;;
79229;SDS011;68663;49.122;17.544;2023-05-07T04:28:12;4.03;;;2.42;;
79229;SDS011;68663;49.122;17.544;2023-05-07T04:30:38;3.60;;;2.38;;
79229;SDS011;68663;49.122;17.544;2023-05-07T04:33:04;2.78;;;2.40;;
79229;SDS011;68663;49.122;17.544;2023-05-07T04:35:29;3.42;;;2.20;;
79229;SDS011;68663;49.122;17.544;2023-05-07T04:37:54;2.85;;;2.38;;
79229;SDS011;68663;49.122;17.544;2023-05-07T04:40:20;3.30;;;2.50;;
79229;SDS011;68663;49.122;17.544;2023-05-07T04:42:45;2.90;;;2.38;;
79229;SDS011;68663;49.122;17.544;2023-05-07T04:45:11;3.10;;;2.28;;
79229;SDS011;68663;49.122;17.544;2023-05-07T04:47:37;3.35;;;2.80;;
79229;SDS011;68663;49.122;17.544;2023-05-07T04:50:03;3.15;;;2.33;;
79229;SDS011;68663;49.122;17.544;2023-05-07T04:52:30;3.03;;;2.53;;
79229;SDS011;68663;49.122;17.544;2023-05-07T04:54:56;2.60;;;2.20;;
79229;SDS011;68663;49.122;17.544;2023-05-07T04:57:21;3.33;;;2.38;;
79229;SDS011;68663;49.122;17.544;2023-05-07T04:59:46;3.17;;;2.23;;
79229;SDS011;68663;49.122;17.544;2023-05-07T05:02:12;2.83;;;2.42;;
79229;SDS011;68663;49.122;17.544;2023-05-07T05:04:37;2.60;;;2.40;;
79229;SDS011;68663;49.122;17.544;2023-05-07T05:07:03;3.00;;;2.38;;
79229;SDS011;68663;49.122;17.544;2023-05-07T05:09:29;3.08;;;2.50;;
79229;SDS011;68663;49.122;17.544;2023-05-07T05:11:55;2.85;;;2.30;;
79229;SDS011;68663;49.122;17.544;2023-05-07T05:14:20;3.00;;;2.33;;
79229;SDS011;68663;49.122;17.544;2023-05-07T05:16:45;3.08;;;2.40;;
79229;SDS011;68663;49.122;17.544;2023-05-07T05:19:11;2.75;;;2.10;;
79229;SDS011;68663;49.122;17.544;2023-05-07T05:21:36;3.88;;;2.25;;
79229;SDS011;68663;49.122;17.544;2023-05-07T05:24:02;3.08;;;2.20;;
79229;SDS011;68663;49.122;17.544;2023-05-07T05:26:28;3.28;;;2.47;;
79229;SDS011;68663;49.122;17.544;2023-05-07T05:28:54;3.50;;;2.40;;
79229;SDS011;68663;49.122;17.544;2023-05-07T05:31:19;3.53;;;2.50;;
79229;SDS011;68663;49.122;17.544;2023-05-07T05:33:44;4.78;;;2.25;;
79229;SDS011;68663;49.122;17.544;2023-05-07T05:36:10;2.55;;;2.15;;
79229;SDS011;68663;49.122;17.544;2023-05-07T05:38:36;2.67;;;2.15;;
79229;SDS011;68663;49.122;17.544;2023-05-07T05:41:02;2.50;;;2.05;;
79229;SDS011;68663;49.122;17.544;2023-05-07T05:43:27;2.20;;;1.80;;
79229;SDS011;68663;49.122;17.544;2023-05-07T05:45:53;2.95;;;2.22;;
79229;SDS011;68663;49.122;17.544;2023-05-07T05:48:20;2.53;;;2.03;;
79229;SDS011;68663;49.122;17.544;2023-05-07T05:50:45;3.83;;;2.17;;
79229;SDS011;68663;49.122;17.544;2023-05-07T05:53:11;3.55;;;2.17;;
79229;SDS011;68663;49.122;17.544;2023-05-07T05:55:36;3.55;;;2.40;;
79229;SDS011;68663;49.122;17.544;2023-05-07T05:58:02;2.50;;;2.08;;
79229;SDS011;68663;49.122;17.544;2023-05-07T06:00:27;2.75;;;2.25;;
79229;SDS011;68663;49.122;17.544;2023-05-07T06:02:53;4.13;;;2.40;;
79229;SDS011;68663;49.122;17.544;2023-05-07T06:05:18;3.20;;;2.30;;
79229;SDS011;68663;49.122;17.544;2023-05-07T06:07:44;3.25;;;2.30;;
79229;SDS011;68663;49.122;17.544;2023-05-07T06:10:09;3.25;;;2.35;;
79229;SDS011;68663;49.122;17.544;2023-05-07T06:12:35;5.18;;;2.20;;
79229;SDS011;68663;49.122;17.544;2023-05-07T06:15:00;3.63;;;2.47;;
79229;SDS011;68663;49.122;17.544;2023-05-07T06:17:26;5.43;;;1.95;;
79229;SDS011;68663;49.122;17.544;2023-05-07T06:19:52;2.90;;;2.10;;
79229;SDS011;68663;49.122;17.544;2023-05-07T06:22:17;5.68;;;2.33;;
79229;SDS011;68663;49.122;17.544;2023-05-07T06:24:43;2.90;;;2.20;;
79229;SDS011;68663;49.122;17.544;2023-05-07T06:27:08;2.58;;;2.25;;
79229;SDS011;68663;49.122;17.544;2023-05-07T06:29:33;2.75;;;1.95;;
79229;SDS011;68663;49.122;17.544;2023-05-07T06:32:12;4.28;;;2.50;;
79229;SDS011;68663;49.122;17.544;2023-05-07T06:34:39;5.05;;;2.97;;
79229;SDS011;68663;49.122;17.544;2023-05-07T06:37:05;10.25;;;2.72;;
79229;SDS011;68663;49.122;17.544;2023-05-07T06:39:31;7.22;;;2.30;;
79229;SDS011;68663;49.122;17.544;2023-05-07T06:41:57;13.48;;;2.55;;
79229;SDS011;68663;49.122;17.544;2023-05-07T06:44:23;6.82;;;3.03;;
79229;SDS011;68663;49.122;17.544;2023-05-07T06:46:49;4.57;;;2.03;;
79229;SDS011;68663;49.122;17.544;2023-05-07T06:49:14;6.43;;;2.50;;
79229;SDS011;68663;49.122;17.544;2023-05-07T06:51:40;13.80;;;2.92;;
79229;SDS011;68663;49.122;17.544;2023-05-07T06:54:05;5.00;;;2.30;;
79229;SDS011;68663;49.122;17.544;2023-05-07T06:56:31;4.25;;;2.40;;
79229;SDS011;68663;49.122;17.544;2023-05-07T06:58:57;6.07;;;2.70;;
79229;SDS011;68663;49.122;17.544;2023-05-07T07:01:22;6.32;;;2.67;;
79229;SDS011;68663;49.122;17.544;2023-05-07T07:03:48;4.63;;;2.53;;
79229;SDS011;68663;49.122;17.544;2023-05-07T07:06:13;8.70;;;2.60;;
79229;SDS011;68663;49.122;17.544;2023-05-07T07:08:39;7.60;;;2.58;;
79229;SDS011;68663;49.122;17.544;2023-05-07T07:11:05;5.78;;;2.30;;
79229;SDS011;68663;49.122;17.544;2023-05-07T07:13:31;6.28;;;2.15;;
79229;SDS011;68663;49.122;17.544;2023-05-07T07:15:56;8.13;;;2.97;;
79229;SDS011;68663;49.122;17.544;2023-05-07T07:18:22;4.07;;;2.80;;
79229;SDS011;68663;49.122;17.544;2023-05-07T07:20:47;5.38;;;3.17;;
79229;SDS011;68663;49.122;17.544;2023-05-07T07:23:13;4.32;;;2.88;;
79229;SDS011;68663;49.122;17.544;2023-05-07T07:25:39;4.47;;;2.95;;
79229;SDS011;68663;49.122;17.544;2023-05-07T07:28:05;4.30;;;2.80;;
79229;SDS011;68663;49.122;17.544;2023-05-07T07:30:30;4.90;;;3.15;;
79229;SDS011;68663;49.122;17.544;2023-05-07T07:32:56;5.93;;;2.67;;
79229;SDS011;68663;49.122;17.544;2023-05-07T07:35:27;5.90;;;2.63;;
79229;SDS011;68663;49.122;17.544;2023-05-07T07:37:52;5.40;;;2.53;;
79229;SDS011;68663;49.122;17.544;2023-05-07T07:40:18;4.70;;;2.78;;
79229;SDS011;68663;49.122;17.544;2023-05-07T07:42:43;6.63;;;2.63;;
79229;SDS011;68663;49.122;17.544;2023-05-07T07:45:09;5.80;;;2.85;;
79229;SDS011;68663;49.122;17.544;2023-05-07T07:47:35;5.38;;;2.90;;
79229;SDS011;68663;49.122;17.544;2023-05-07T07:50:00;8.85;;;2.92;;
79229;SDS011;68663;49.122;17.544;2023-05-07T07:52:26;5.28;;;2.65;;
79229;SDS011;68663;49.122;17.544;2023-05-07T07:54:51;4.47;;;2.72;;
79229;SDS011;68663;49.122;17.544;2023-05-07T07:57:17;5.13;;;3.13;;
79229;SDS011;68663;49.122;17.544;2023-05-07T07:59:43;4.43;;;2.90;;
79229;SDS011;68663;49.122;17.544;2023-05-07T08:02:08;5.30;;;2.88;;
79229;SDS011;68663;49.122;17.544;2023-05-07T08:04:34;5.13;;;2.78;;
79229;SDS011;68663;49.122;17.544;2023-05-07T08:07:00;6.72;;;2.83;;
79229;SDS011;68663;49.122;17.544;2023-05-07T08:09:25;4.70;;;2.78;;
79229;SDS011;68663;49.122;17.544;2023-05-07T08:11:51;9.07;;;2.78;;
79229;SDS011;68663;49.122;17.544;2023-05-07T08:14:16;4.68;;;2.80;;
79229;SDS011;68663;49.122;17.544;2023-05-07T08:16:42;7.03;;;3.08;;
79229;SDS011;68663;49.122;17.544;2023-05-07T08:19:07;8.88;;;3.13;;
79229;SDS011;68663;49.122;17.544;2023-05-07T08:21:34;15.87;;;5.40;;
79229;SDS011;68663;49.122;17.544;2023-05-07T08:23:59;38.88;;;10.55;;
79229;SDS011;68663;49.122;17.544;2023-05-07T08:26:25;29.63;;;9.82;;
79229;SDS011;68663;49.122;17.544;2023-05-07T08:28:50;33.90;;;9.18;;
79229;SDS011;68663;49.122;17.544;2023-05-07T08:31:16;24.03;;;7.13;;
79229;SDS011;68663;49.122;17.544;2023-05-07T08:33:41;24.80;;;8.23;;
79229;SDS011;68663;49.122;17.544;2023-05-07T08:36:06;31.58;;;7.95;;
79229;SDS011;68663;49.122;17.544;2023-05-07T08:38:32;21.20;;;6.97;;
79229;SDS011;68663;49.122;17.544;2023-05-07T08:40:57;22.38;;;7.45;;
79229;SDS011;68663;49.122;17.544;2023-05-07T08:43:24;18.88;;;6.78;;
79229;SDS011;68663;49.122;17.544;2023-05-07T08:45:53;22.17;;;6.65;;
79229;SDS011;68663;49.122;17.544;2023-05-07T08:48:20;18.58;;;6.75;;
79229;SDS011;68663;49.122;17.544;2023-05-07T08:50:48;18.13;;;6.18;;
79229;SDS011;68663;49.122;17.544;2023-05-07T08:53:14;16.88;;;6.30;;
79229;SDS011;68663;49.122;17.544;2023-05-07T08:55:41;16.73;;;6.75;;
79229;SDS011;68663;49.122;17.544;2023-05-07T08:58:06;16.38;;;6.13;;
79229;SDS011;68663;49.122;17.544;2023-05-07T09:00:32;14.80;;;6.20;;
79229;SDS011;68663;49.122;17.544;2023-05-07T09:02:57;15.95;;;5.53;;
79229;SDS011;68663;49.122;17.544;2023-05-07T09:05:23;14.63;;;5.50;;
79229;SDS011;68663;49.122;17.544;2023-05-07T09:07:48;15.10;;;5.37;;
79229;SDS011;68663;49.122;17.544;2023-05-07T09:10:15;11.77;;;5.63;;
79229;SDS011;68663;49.122;17.544;2023-05-07T09:12:40;11.85;;;5.38;;
79229;SDS011;68663;49.122;17.544;2023-05-07T09:15:06;15.30;;;5.47;;
79229;SDS011;68663;49.122;17.544;2023-05-07T09:17:32;13.55;;;5.25;;
79229;SDS011;68663;49.122;17.544;2023-05-07T09:20:04;13.43;;;5.20;;
79229;SDS011;68663;49.122;17.544;2023-05-07T09:22:34;10.68;;;4.82;;
79229;SDS011;68663;49.122;17.544;2023-05-07T09:25:01;12.63;;;5.25;;
79229;SDS011;68663;49.122;17.544;2023-05-07T09:27:27;15.52;;;5.60;;
79229;SDS011;68663;49.122;17.544;2023-05-07T09:29:52;13.13;;;4.93;;
79229;SDS011;68663;49.122;17.544;2023-05-07T09:32:18;10.85;;;4.78;;
79229;SDS011;68663;49.122;17.544;2023-05-07T09:34:43;13.85;;;5.65;;
79229;SDS011;68663;49.122;17.544;2023-05-07T09:37:10;13.65;;;4.85;;
79229;SDS011;68663;49.122;17.544;2023-05-07T09:39:44;12.20;;;5.30;;
79229;SDS011;68663;49.122;17.544;2023-05-07T09:42:11;9.13;;;4.53;;
79229;SDS011;68663;49.122;17.544;2023-05-07T09:44:37;12.38;;;5.15;;
79229;SDS011;68663;49.122;17.544;2023-05-07T09:47:06;12.38;;;5.55;;
79229;SDS011;68663;49.122;17.544;2023-05-07T09:49:36;13.20;;;5.18;;
79229;SDS011;68663;49.122;17.544;2023-05-07T09:52:03;11.45;;;5.13;;
79229;SDS011;68663;49.122;17.544;2023-05-07T09:54:31;12.77;;;4.85;;
79229;SDS011;68663;49.122;17.544;2023-05-07T09:56:58;9.02;;;4.55;;
79229;SDS011;68663;49.122;17.544;2023-05-07T09:59:27;10.38;;;4.57;;
79229;SDS011;68663;49.122;17.544;2023-05-07T10:01:56;6.75;;;3.85;;
79229;SDS011;68663;49.122;17.544;2023-05-07T10:04:23;9.27;;;4.93;;
79229;SDS011;68663;49.122;17.544;2023-05-07T10:06:50;10.25;;;4.70;;
79229;SDS011;68663;49.122;17.544;2023-05-07T10:09:16;10.35;;;4.53;;
79229;SDS011;68663;49.122;17.544;2023-05-07T10:11:41;10.02;;;4.72;;
79229;SDS011;68663;49.122;17.544;2023-05-07T10:14:08;8.90;;;4.72;;
79229;SDS011;68663;49.122;17.544;2023-05-07T10:16:35;11.43;;;4.22;;
79229;SDS011;68663;49.122;17.544;2023-05-07T10:19:02;10.40;;;4.95;;
79229;SDS011;68663;49.122;17.544;2023-05-07T10:21:33;7.57;;;3.97;;
79229;SDS011;68663;49.122;17.544;2023-05-07T10:24:07;9.77;;;4.57;;
79229;SDS011;68663;49.122;17.544;2023-05-07T10:26:39;9.05;;;3.97;;
79229;SDS011;68663;49.122;17.544;2023-05-07T10:29:12;8.57;;;4.38;;
79229;SDS011;68663;49.122;17.544;2023-05-07T10:32:19;11.32;;;4.85;;
79229;SDS011;68663;49.122;17.544;2023-05-07T10:35:02;7.80;;;4.35;;
79229;SDS011;68663;49.122;17.544;2023-05-07T10:37:31;7.57;;;4.25;;
79229;SDS011;68663;49.122;17.544;2023-05-07T10:39:57;9.43;;;4.20;;
79229;SDS011;68663;49.122;17.544;2023-05-07T10:42:23;9.65;;;4.55;;
79229;SDS011;68663;49.122;17.544;2023-05-07T10:44:49;8.18;;;4.30;;
79229;SDS011;68663;49.122;17.544;2023-05-07T10:47:16;8.10;;;3.97;;
79229;SDS011;68663;49.122;17.544;2023-05-07T10:52:12;8.17;;;4.03;;
79229;SDS011;68663;49.122;17.544;2023-05-07T10:54:42;6.85;;;4.13;;
79229;SDS011;68663;49.122;17.544;2023-05-07T10:59:53;8.77;;;4.22;;
79229;SDS011;68663;49.122;17.544;2023-05-07T11:02:19;10.25;;;3.80;;
79229;SDS011;68663;49.122;17.544;2023-05-07T11:04:44;7.78;;;3.92;;
79229;SDS011;68663;49.122;17.544;2023-05-07T11:09:58;6.53;;;3.78;;
79229;SDS011;68663;49.122;17.544;2023-05-07T11:17:27;6.47;;;3.35;;
79229;SDS011;68663;49.122;17.544;2023-05-07T11:19:56;7.82;;;3.83;;
79229;SDS011;68663;49.122;17.544;2023-05-07T11:24:57;8.68;;;4.25;;
79229;SDS011;68663;49.122;17.544;2023-05-07T11:27:25;8.45;;;4.40;;
79229;SDS011;68663;49.122;17.544;2023-05-07T11:29:51;6.22;;;3.58;;
79229;SDS011;68663;49.122;17.544;2023-05-07T11:32:23;6.95;;;3.65;;
79229;SDS011;68663;49.122;17.544;2023-05-07T11:34:52;6.60;;;3.83;;
79229;SDS011;68663;49.122;17.544;2023-05-07T11:37:19;7.28;;;3.88;;
79229;SDS011;68663;49.122;17.544;2023-05-07T11:39:46;6.60;;;3.58;;
79229;SDS011;68663;49.122;17.544;2023-05-07T11:42:31;9.73;;;4.35;;
79229;SDS011;68663;49.122;17.544;2023-05-07T11:44:57;6.97;;;3.53;;
79229;SDS011;68663;49.122;17.544;2023-05-07T11:47:23;8.05;;;3.50;;
79229;SDS011;68663;49.122;17.544;2023-05-07T11:49:50;6.72;;;3.58;;
79229;SDS011;68663;49.122;17.544;2023-05-07T11:52:19;8.07;;;3.95;;
79229;SDS011;68663;49.122;17.544;2023-05-07T11:54:54;8.13;;;3.78;;
79229;SDS011;68663;49.122;17.544;2023-05-07T11:57:21;5.95;;;3.22;;
79229;SDS011;68663;49.122;17.544;2023-05-07T11:59:47;5.80;;;3.50;;
79229;SDS011;68663;49.122;17.544;2023-05-07T12:02:17;6.05;;;3.65;;
79229;SDS011;68663;49.122;17.544;2023-05-07T12:04:42;7.10;;;3.97;;
79229;SDS011;68663;49.122;17.544;2023-05-07T12:07:12;6.60;;;3.78;;
79229;SDS011;68663;49.122;17.544;2023-05-07T12:09:38;5.07;;;3.10;;
79229;SDS011;68663;49.122;17.544;2023-05-07T12:12:05;7.60;;;3.72;;
79229;SDS011;68663;49.122;17.544;2023-05-07T12:14:30;6.50;;;3.50;;
79229;SDS011;68663;49.122;17.544;2023-05-07T12:16:57;7.47;;;3.75;;
79229;SDS011;68663;49.122;17.544;2023-05-07T12:19:24;4.57;;;3.33;;
79229;SDS011;68663;49.122;17.544;2023-05-07T12:21:50;6.78;;;3.60;;
79229;SDS011;68663;49.122;17.544;2023-05-07T12:24:16;7.13;;;3.58;;
79229;SDS011;68663;49.122;17.544;2023-05-07T12:26:41;6.10;;;3.63;;
79229;SDS011;68663;49.122;17.544;2023-05-07T12:29:06;5.38;;;3.25;;
79229;SDS011;68663;49.122;17.544;2023-05-07T12:31:34;5.15;;;3.15;;
79229;SDS011;68663;49.122;17.544;2023-05-07T12:33:59;6.28;;;3.17;;
79229;SDS011;68663;49.122;17.544;2023-05-07T12:36:25;5.40;;;3.33;;
79229;SDS011;68663;49.122;17.544;2023-05-07T12:38:50;6.80;;;3.38;;
79229;SDS011;68663;49.122;17.544;2023-05-07T12:41:16;6.38;;;3.42;;
79229;SDS011;68663;49.122;17.544;2023-05-07T12:43:44;5.80;;;3.00;;
79229;SDS011;68663;49.122;17.544;2023-05-07T12:46:11;4.00;;;2.95;;
79229;SDS011;68663;49.122;17.544;2023-05-07T12:48:41;4.60;;;2.90;;
79229;SDS011;68663;49.122;17.544;2023-05-07T12:51:09;6.55;;;3.60;;
79229;SDS011;68663;49.122;17.544;2023-05-07T12:53:39;4.82;;;3.03;;
79229;SDS011;68663;49.122;17.544;2023-05-07T12:56:07;4.32;;;3.13;;
79229;SDS011;68663;49.122;17.544;2023-05-07T12:58:34;5.70;;;3.67;;
79229;SDS011;68663;49.122;17.544;2023-05-07T13:01:01;5.63;;;3.40;;
79229;SDS011;68663;49.122;17.544;2023-05-07T13:03:30;4.88;;;2.90;;
79229;SDS011;68663;49.122;17.544;2023-05-07T13:05:58;4.78;;;2.95;;
79229;SDS011;68663;49.122;17.544;2023-05-07T13:08:25;5.05;;;3.10;;
79229;SDS011;68663;49.122;17.544;2023-05-07T13:10:52;4.07;;;3.20;;
79229;SDS011;68663;49.122;17.544;2023-05-07T13:13:20;4.75;;;2.90;;
79229;SDS011;68663;49.122;17.544;2023-05-07T13:15:47;5.53;;;3.50;;
79229;SDS011;68663;49.122;17.544;2023-05-07T13:18:12;6.82;;;3.20;;
79229;SDS011;68663;49.122;17.544;2023-05-07T13:20:38;5.93;;;3.80;;
79229;SDS011;68663;49.122;17.544;2023-05-07T13:23:03;6.93;;;3.63;;
79229;SDS011;68663;49.122;17.544;2023-05-07T13:25:29;5.15;;;2.90;;
79229;SDS011;68663;49.122;17.544;2023-05-07T13:27:59;3.88;;;2.80;;
79229;SDS011;68663;49.122;17.544;2023-05-07T13:30:25;5.45;;;3.20;;
79229;SDS011;68663;49.122;17.544;2023-05-07T13:32:51;5.20;;;3.17;;
79229;SDS011;68663;49.122;17.544;2023-05-07T13:35:17;4.45;;;2.90;;
79229;SDS011;68663;49.122;17.544;2023-05-07T13:37:42;4.88;;;3.10;;
79229;SDS011;68663;49.122;17.544;2023-05-07T13:40:08;4.63;;;2.88;;
79229;SDS011;68663;49.122;17.544;2023-05-07T13:42:34;4.70;;;2.80;;
79229;SDS011;68663;49.122;17.544;2023-05-07T13:44:59;4.15;;;2.65;;
79229;SDS011;68663;49.122;17.544;2023-05-07T13:47:25;4.53;;;2.40;;
79229;SDS011;68663;49.122;17.544;2023-05-07T13:49:51;5.57;;;3.10;;
79229;SDS011;68663;49.122;17.544;2023-05-07T13:52:17;4.25;;;2.65;;
79229;SDS011;68663;49.122;17.544;2023-05-07T13:54:42;4.55;;;2.88;;
79229;SDS011;68663;49.122;17.544;2023-05-07T13:57:08;3.92;;;2.70;;
79229;SDS011;68663;49.122;17.544;2023-05-07T13:59:33;4.28;;;2.60;;
79229;SDS011;68663;49.122;17.544;2023-05-07T14:01:59;6.13;;;3.45;;
79229;SDS011;68663;49.122;17.544;2023-05-07T14:04:25;5.63;;;3.00;;
79229;SDS011;68663;49.122;17.544;2023-05-07T14:06:50;5.05;;;2.88;;
79229;SDS011;68663;49.122;17.544;2023-05-07T14:09:16;4.57;;;2.95;;
79229;SDS011;68663;49.122;17.544;2023-05-07T14:11:41;3.78;;;2.58;;
79229;SDS011;68663;49.122;17.544;2023-05-07T14:14:07;5.20;;;3.03;;
79229;SDS011;68663;49.122;17.544;2023-05-07T14:16:32;4.53;;;2.78;;
79229;SDS011;68663;49.122;17.544;2023-05-07T14:18:58;5.38;;;2.60;;
79229;SDS011;68663;49.122;17.544;2023-05-07T14:21:23;4.03;;;2.93;;
79229;SDS011;68663;49.122;17.544;2023-05-07T14:23:49;4.18;;;2.97;;
79229;SDS011;68663;49.122;17.544;2023-05-07T14:26:14;5.18;;;2.95;;
79229;SDS011;68663;49.122;17.544;2023-05-07T14:28:39;4.10;;;2.70;;
79229;SDS011;68663;49.122;17.544;2023-05-07T14:31:06;5.22;;;2.70;;
79229;SDS011;68663;49.122;17.544;2023-05-07T14:33:31;3.38;;;2.50;;
79229;SDS011;68663;49.122;17.544;2023-05-07T14:35:57;5.25;;;2.70;;
79229;SDS011;68663;49.122;17.544;2023-05-07T14:38:22;5.40;;;3.08;;
79229;SDS011;68663;49.122;17.544;2023-05-07T14:40:47;4.97;;;3.08;;
79229;SDS011;68663;49.122;17.544;2023-05-07T14:43:13;5.22;;;3.17;;